createdAt,value
2022-11-05T00:02:32.956Z,14.86
2022-11-05T00:06:45.629Z,14.83
2022-11-05T00:10:48.343Z,14.65
2022-11-05T00:15:00.974Z,14.62
2022-11-05T00:19:10.218Z,14.50
2022-11-05T00:23:22.989Z,14.30
2022-11-05T00:27:26.656Z,14.39
2022-11-05T00:31:27.726Z,14.25
2022-11-05T00:35:27.775Z,14.06
2022-11-05T00:39:27.883Z,14.15
2022-11-05T00:43:43.309Z,14.18
2022-11-05T00:47:57.058Z,14.13
2022-11-05T00:52:18.731Z,14.21
2022-11-05T00:56:18.834Z,14.17
2022-11-05T01:00:21.950Z,14.15
2022-11-05T01:04:22.126Z,14.13
2022-11-05T01:08:25.865Z,14.04
2022-11-05T01:12:26.116Z,14.35
2022-11-05T01:16:28.883Z,14.30
2022-11-05T01:20:30.217Z,14.29
2022-11-05T01:24:30.514Z,14.19
2022-11-05T01:28:30.775Z,14.09
2022-11-05T01:32:33.531Z,14.12
2022-11-05T01:36:33.734Z,14.33
2022-11-05T01:40:34.001Z,14.29
2022-11-05T01:45:01.029Z,14.22
2022-11-05T01:49:14.921Z,13.84
2022-11-05T01:53:29.737Z,13.76
2022-11-05T01:57:32.011Z,13.79
2022-11-05T02:01:32.584Z,13.79
2022-11-05T02:05:37.448Z,13.77
2022-11-05T02:09:46.673Z,13.79
2022-11-05T02:13:47.227Z,13.58
2022-11-05T02:18:02.297Z,13.89
2022-11-05T02:22:53.935Z,13.78
2022-11-05T02:27:49.317Z,13.71
2022-11-05T02:32:02.396Z,13.74
2022-11-05T02:36:46.547Z,13.65
2022-11-05T02:41:05.125Z,13.63
2022-11-05T02:45:15.866Z,13.93
2022-11-05T02:49:36.178Z,13.78
2022-11-05T02:53:48.314Z,13.79
2022-11-05T02:57:50.991Z,13.65
2022-11-05T03:01:53.334Z,13.78
2022-11-05T03:06:22.623Z,13.82
2022-11-05T03:10:48.668Z,13.82
2022-11-05T03:15:00.553Z,13.77
2022-11-05T03:19:11.688Z,13.62
2022-11-05T03:23:25.573Z,13.54
2022-11-05T03:27:34.652Z,13.70
2022-11-05T03:31:38.159Z,13.69
2022-11-05T03:35:44.372Z,13.48
2022-11-05T03:39:51.853Z,13.26
2022-11-05T03:43:57.197Z,13.11
2022-11-05T03:48:02.770Z,13.20
2022-11-05T03:52:08.997Z,13.22
2022-11-05T03:56:22.713Z,13.12
2022-11-05T04:00:25.627Z,13.08
2022-11-05T04:04:25.766Z,13.16
2022-11-05T04:08:38.417Z,13.10
2022-11-05T04:12:53.710Z,12.96
2022-11-05T04:17:09.696Z,12.83
2022-11-05T04:21:24.281Z,12.61
2022-11-05T04:25:25.607Z,12.78
2022-11-05T04:29:40.729Z,12.79
2022-11-05T04:33:41.059Z,12.92
2022-11-05T04:37:41.147Z,13.12
2022-11-05T04:41:41.230Z,13.18
2022-11-05T04:45:44.384Z,13.21
2022-11-05T04:49:44.446Z,13.42
2022-11-05T04:53:44.520Z,13.41
2022-11-05T04:57:44.721Z,13.53
2022-11-05T05:01:47.409Z,13.52
2022-11-05T05:05:47.552Z,13.68
2022-11-05T05:09:47.659Z,13.69
2022-11-05T05:13:48.503Z,13.89
2022-11-05T05:17:54.086Z,14.08
2022-11-05T05:21:54.393Z,14.23
2022-11-05T05:25:54.437Z,14.15
2022-11-05T05:29:54.492Z,14.32
2022-11-05T05:33:59.146Z,14.45
2022-11-05T05:37:59.711Z,14.54
2022-11-05T05:41:59.787Z,14.63
2022-11-05T05:46:00.169Z,14.50
2022-11-05T05:50:03.163Z,14.60
2022-11-05T05:54:03.222Z,14.75
2022-11-05T05:58:03.254Z,14.75
2022-11-05T06:02:03.919Z,14.81
2022-11-05T06:06:10.257Z,14.92
2022-11-05T06:10:11.756Z,14.96
2022-11-05T06:14:14.031Z,15.02
2022-11-05T06:18:14.337Z,15.05
2022-11-05T06:22:17.223Z,15.15
2022-11-05T06:26:20.422Z,15.11
2022-11-05T06:30:21.846Z,14.93
2022-11-05T06:34:21.951Z,15.45
2022-11-05T06:38:24.615Z,15.39
2022-11-05T06:42:25.110Z,15.64
2022-11-05T06:46:25.374Z,15.91
2022-11-05T06:50:25.846Z,15.87
2022-11-05T06:54:28.448Z,15.86
2022-11-05T06:58:30.944Z,15.75
2022-11-05T07:02:30.997Z,15.83
2022-11-05T07:06:36.705Z,16.13
2022-11-05T07:10:39.761Z,16.12
2022-11-05T07:14:39.885Z,16.21
2022-11-05T07:18:40.082Z,16.16
2022-11-05T07:22:40.907Z,16.63
2022-11-05T07:26:44.708Z,16.77
2022-11-05T07:30:45.541Z,17.26
2022-11-05T07:34:45.895Z,17.87
2022-11-05T07:38:46.199Z,18.26
2022-11-05T07:42:51.418Z,18.66
2022-11-05T07:46:51.494Z,18.72
2022-11-05T07:50:55.858Z,19.18
2022-11-05T07:54:56.041Z,19.54
2022-11-05T07:58:58.664Z,19.54
2022-11-05T08:03:08.659Z,19.54
2022-11-05T08:07:09.445Z,18.89
2022-11-05T08:11:11.945Z,18.64
2022-11-05T08:15:15.141Z,18.34
2022-11-05T08:19:15.238Z,18.33
2022-11-05T08:23:15.578Z,18.08
2022-11-05T08:27:15.916Z,18.34
2022-11-05T08:31:19.207Z,18.07
2022-11-05T08:35:20.364Z,18.06
2022-11-05T08:39:20.669Z,17.72
2022-11-05T08:43:20.683Z,17.72
2022-11-05T08:47:24.163Z,17.54
2022-11-05T08:51:24.484Z,17.85
2022-11-05T08:55:24.782Z,18.38
2022-11-05T08:59:29.884Z,19.27
2022-11-05T09:03:32.535Z,20.27
2022-11-05T09:07:32.584Z,20.45
2022-11-05T09:11:49.912Z,20.88
2022-11-05T09:15:53.983Z,20.80
2022-11-05T09:19:56.671Z,20.97
2022-11-05T09:23:56.707Z,20.88
2022-11-05T09:27:56.803Z,20.59
2022-11-05T09:31:56.859Z,20.14
2022-11-05T09:36:03.235Z,20.16
2022-11-05T09:40:03.373Z,19.87
2022-11-05T09:44:13.149Z,19.50
2022-11-05T09:48:20.477Z,19.96
2022-11-05T09:52:26.669Z,20.68
2022-11-05T09:56:32.229Z,20.91
2022-11-05T10:00:34.550Z,21.10
2022-11-05T10:04:37.095Z,20.63
2022-11-05T10:08:46.969Z,19.70
2022-11-05T10:12:55.467Z,19.53
2022-11-05T10:17:03.725Z,20.66
2022-11-05T10:21:04.638Z,21.61
2022-11-05T10:25:21.568Z,22.62
2022-11-05T10:29:29.914Z,22.17
2022-11-05T10:33:38.770Z,22.35
2022-11-05T10:37:41.370Z,22.31
2022-11-05T10:42:05.064Z,21.80
2022-11-05T10:46:22.851Z,20.82
2022-11-05T10:50:27.192Z,20.45
2022-11-05T10:54:37.693Z,20.62
2022-11-05T10:58:42.714Z,20.49
2022-11-05T11:02:43.031Z,19.98
2022-11-05T11:06:52.400Z,20.35
2022-11-05T11:10:56.055Z,22.12
2022-11-05T11:15:16.798Z,23.27
2022-11-05T11:19:32.362Z,22.46
2022-11-05T11:23:40.797Z,21.52
2022-11-05T11:27:41.291Z,21.16
2022-11-05T11:31:45.098Z,20.45
2022-11-05T11:35:49.503Z,21.36
2022-11-05T11:39:55.588Z,21.44
2022-11-05T11:44:02.648Z,20.91
2022-11-05T11:48:09.937Z,21.35
2022-11-05T11:52:18.700Z,20.89
2022-11-05T11:56:22.548Z,20.77
2022-11-05T12:00:27.006Z,20.36
2022-11-05T12:05:13.879Z,21.80
2022-11-05T12:09:24.171Z,23.01
2022-11-05T12:14:12.589Z,24.55
2022-11-05T12:18:26.069Z,24.50
2022-11-05T12:22:40.878Z,23.78
2022-11-05T12:26:58.203Z,23.88
2022-11-05T12:31:11.979Z,25.13
2022-11-05T12:35:33.167Z,24.84
2022-11-05T12:39:51.253Z,25.16
2022-11-05T12:44:17.048Z,26.05
2022-11-05T12:48:59.230Z,26.98
2022-11-05T12:53:38.552Z,26.44
2022-11-05T12:57:45.859Z,27.40
2022-11-05T13:01:52.891Z,28.38
2022-11-05T13:06:05.469Z,28.78
2022-11-05T13:10:31.759Z,27.31
2022-11-05T13:14:41.889Z,27.57
2022-11-05T13:18:48.634Z,28.41
2022-11-05T13:22:53.626Z,28.77
2022-11-05T13:27:01.112Z,28.96
2022-11-05T13:31:08.406Z,29.46
2022-11-05T13:35:18.670Z,29.74
2022-11-05T13:39:28.501Z,29.67
2022-11-05T13:44:14.173Z,29.59
2022-11-05T13:48:47.215Z,29.44
2022-11-05T13:53:17.746Z,28.91
2022-11-05T13:57:43.873Z,29.11
2022-11-05T14:01:53.541Z,28.12
2022-11-05T14:06:05.193Z,25.72
2022-11-05T14:10:20.591Z,23.71
2022-11-05T14:14:25.595Z,22.82
2022-11-05T14:18:45.103Z,22.37
2022-11-05T14:22:48.030Z,21.65
2022-11-05T14:27:23.738Z,20.48
2022-11-05T14:31:54.593Z,19.59
2022-11-05T14:35:51.056Z,19.65
2022-11-05T14:39:54.905Z,18.80
2022-11-05T14:44:03.728Z,19.11
2022-11-05T14:48:07.327Z,19.01
2022-11-05T14:52:13.003Z,19.12
2022-11-05T14:56:20.245Z,19.06
2022-11-05T15:00:47.384Z,19.23
2022-11-05T15:04:49.385Z,19.13
2022-11-05T15:09:08.294Z,19.03
2022-11-05T15:13:31.637Z,18.83
2022-11-05T15:17:35.314Z,18.76
2022-11-05T15:21:41.408Z,18.70
2022-11-05T15:25:53.646Z,18.48
2022-11-05T15:29:57.094Z,18.40
2022-11-05T15:34:19.907Z,18.34
2022-11-05T15:38:36.853Z,18.32
2022-11-05T15:42:36.959Z,18.24
2022-11-05T15:46:39.674Z,18.19
2022-11-05T15:50:39.841Z,18.13
2022-11-05T15:54:39.911Z,17.90
2022-11-05T15:58:49.036Z,18.04
2022-11-05T16:02:59.766Z,17.99
2022-11-05T16:07:03.913Z,18.13
2022-11-05T16:11:04.677Z,18.05
2022-11-05T16:15:21.996Z,17.94
2022-11-05T16:19:43.705Z,18.01
2022-11-05T16:23:47.674Z,18.04
2022-11-05T16:27:49.272Z,17.99
2022-11-05T16:31:54.043Z,17.97
2022-11-05T16:35:56.797Z,18.04
2022-11-05T16:39:58.121Z,17.80
2022-11-05T16:44:00.601Z,17.83
2022-11-05T16:48:01.253Z,17.77
2022-11-05T16:52:07.941Z,17.83
2022-11-05T16:56:12.165Z,17.84
2022-11-05T17:00:18.298Z,17.77
2022-11-05T17:04:18.411Z,17.62
2022-11-05T17:08:21.133Z,18.04
2022-11-05T17:12:21.182Z,18.06
2022-11-05T17:16:21.323Z,17.93
2022-11-05T17:20:40.265Z,17.77
2022-11-05T17:24:43.592Z,17.71
2022-11-05T17:28:44.216Z,17.61
2022-11-05T17:32:44.384Z,17.30
2022-11-05T17:36:44.563Z,16.26
2022-11-05T17:40:47.382Z,17.01
2022-11-05T17:44:47.454Z,16.88
2022-11-05T17:48:48.327Z,16.84
2022-11-05T17:52:48.424Z,16.95
2022-11-05T17:56:51.300Z,16.86
2022-11-05T18:00:51.786Z,16.99
2022-11-05T18:04:51.994Z,17.06
2022-11-05T18:08:52.075Z,17.15
2022-11-05T18:12:55.122Z,16.96
2022-11-05T18:17:00.148Z,16.87
2022-11-05T18:21:00.644Z,16.87
2022-11-05T18:25:00.959Z,16.80
2022-11-05T18:29:04.261Z,16.72
2022-11-05T18:33:04.353Z,16.66
2022-11-05T18:37:04.483Z,16.68
2022-11-05T18:41:09.384Z,16.74
2022-11-05T18:45:14.296Z,16.51
2022-11-05T18:49:14.501Z,16.97
2022-11-05T18:53:14.572Z,16.99
2022-11-05T18:57:14.638Z,16.94
2022-11-05T19:01:24.465Z,16.77
2022-11-05T19:05:29.459Z,16.81
2022-11-05T19:09:30.363Z,16.66
2022-11-05T19:13:30.378Z,16.51
2022-11-05T19:17:35.255Z,16.77
2022-11-05T19:21:36.106Z,16.41
2022-11-05T19:25:36.246Z,16.65
2022-11-05T19:29:36.330Z,16.81
2022-11-05T19:33:39.742Z,16.79
2022-11-05T19:37:39.970Z,16.67
2022-11-05T19:41:40.719Z,16.47
2022-11-05T19:45:45.554Z,16.18
2022-11-05T19:49:48.713Z,16.26
2022-11-05T19:53:49.238Z,16.24
2022-11-05T19:57:49.384Z,16.26
2022-11-05T20:01:49.596Z,16.41
2022-11-05T20:05:53.072Z,16.44
2022-11-05T20:09:53.153Z,16.42
2022-11-05T20:13:53.477Z,16.52
2022-11-05T20:17:58.876Z,16.47
2022-11-05T20:22:02.391Z,16.47
2022-11-05T20:26:02.878Z,16.46
2022-11-05T20:30:02.968Z,16.32
2022-11-05T20:34:03.239Z,16.31
2022-11-05T20:38:05.894Z,16.12
2022-11-05T20:42:06.296Z,16.53
2022-11-05T20:46:07.298Z,16.48
2022-11-05T20:50:10.016Z,16.16
2022-11-05T20:54:13.116Z,16.10
2022-11-05T20:58:14.592Z,15.87
2022-11-05T21:02:15.716Z,15.86
2022-11-05T21:06:16.971Z,15.79
2022-11-05T21:10:19.846Z,15.69
2022-11-05T21:14:20.365Z,15.69
2022-11-05T21:18:22.898Z,15.49
2022-11-05T21:22:23.038Z,15.03
2022-11-05T21:26:25.785Z,15.27
2022-11-05T21:30:25.917Z,15.21
2022-11-05T21:34:27.836Z,15.32
2022-11-05T21:38:28.752Z,15.25
2022-11-05T21:42:32.303Z,15.38
2022-11-05T21:46:32.760Z,15.40
2022-11-05T21:50:45.415Z,15.37
2022-11-05T21:54:58.100Z,15.56
2022-11-05T21:59:13.359Z,15.54
2022-11-05T22:03:13.506Z,15.40
2022-11-05T22:07:21.393Z,15.55
2022-11-05T22:11:21.439Z,15.60
2022-11-05T22:15:24.270Z,15.49
2022-11-05T22:19:25.078Z,15.66
2022-11-05T22:23:25.213Z,15.68
2022-11-05T22:27:25.372Z,15.70
2022-11-05T22:31:33.160Z,15.76
2022-11-05T22:35:35.964Z,15.72
2022-11-05T22:39:36.547Z,15.73
2022-11-05T22:43:36.937Z,15.73
2022-11-05T22:47:40.223Z,15.73
2022-11-05T22:51:42.225Z,15.76
2022-11-05T22:55:42.662Z,15.75
2022-11-05T22:59:42.983Z,15.66
2022-11-05T23:03:48.390Z,15.71
2022-11-05T23:08:00.930Z,15.76
2022-11-05T23:12:01.183Z,15.68
2022-11-05T23:16:14.138Z,15.52
2022-11-05T23:20:34.002Z,15.57
2022-11-05T23:24:34.085Z,15.46
2022-11-05T23:28:34.240Z,15.32
2022-11-05T23:32:35.582Z,15.12
2022-11-05T23:36:50.882Z,14.88
2022-11-05T23:41:03.291Z,14.91
2022-11-05T23:45:15.873Z,15.06
2022-11-05T23:49:15.960Z,14.69
2022-11-05T23:53:19.049Z,15.04
2022-11-05T23:57:19.121Z,15.06
